createdAt,value
2023-02-15T00:01:51.105Z,102369.78
2023-02-15T00:04:46.484Z,102370.22
2023-02-15T00:07:18.843Z,102367.53
2023-02-15T00:09:49.906Z,102363.00
2023-02-15T00:12:22.480Z,102303.72
2023-02-15T00:14:52.528Z,102306.47
2023-02-15T00:17:22.627Z,102353.50
2023-02-15T00:19:53.022Z,102359.16
2023-02-15T00:22:23.869Z,102350.81
2023-02-15T00:24:54.307Z,102354.88
2023-02-15T00:27:27.343Z,102344.00
2023-02-15T00:29:57.562Z,102343.06
2023-02-15T00:32:27.617Z,102331.31
2023-02-15T00:34:57.615Z,102326.78
2023-02-15T00:37:28.022Z,102318.66
2023-02-15T00:39:58.523Z,102325.88
2023-02-15T00:42:31.576Z,102294.69
2023-02-15T00:45:01.462Z,102332.69
2023-02-15T00:47:32.257Z,102336.56
2023-02-15T00:50:04.351Z,102325.22
2023-02-15T00:52:34.291Z,102325.44
2023-02-15T00:55:07.013Z,102319.34
2023-02-15T00:57:39.651Z,102326.38
2023-02-15T01:00:11.270Z,102322.75
2023-02-15T01:02:41.355Z,102324.31
2023-02-15T01:05:11.400Z,102318.66
2023-02-15T01:07:41.413Z,102317.78
2023-02-15T01:10:12.040Z,102321.41
2023-02-15T01:12:44.782Z,102324.13
2023-02-15T01:15:14.691Z,102322.75
2023-02-15T01:17:46.885Z,102319.13
2023-02-15T01:20:16.979Z,102320.94
2023-02-15T01:22:47.214Z,102305.09
2023-02-15T01:25:17.210Z,102298.75
2023-02-15T01:27:50.106Z,102296.97
2023-02-15T01:30:20.605Z,102308.25
2023-02-15T01:32:51.238Z,102305.06
2023-02-15T01:35:21.357Z,102304.63
2023-02-15T01:37:51.535Z,102302.84
2023-02-15T01:40:23.619Z,102305.34
2023-02-15T01:42:57.945Z,102305.34
2023-02-15T01:45:28.877Z,102302.84
2023-02-15T01:48:04.133Z,102300.34
2023-02-15T01:50:37.180Z,102301.00
2023-02-15T01:53:19.583Z,102294.66
2023-02-15T01:55:54.212Z,102301.00
2023-02-15T01:58:30.182Z,102287.66
2023-02-15T02:01:04.608Z,102291.97
2023-02-15T02:03:39.470Z,102294.47
2023-02-15T02:06:09.440Z,102283.16
2023-02-15T02:08:39.648Z,102273.19
2023-02-15T02:11:14.298Z,102282.03
2023-02-15T02:13:49.032Z,102268.00
2023-02-15T02:16:25.819Z,102266.19
2023-02-15T02:19:21.060Z,102264.16
2023-02-15T02:22:26.364Z,102268.22
2023-02-15T02:25:16.375Z,102259.88
2023-02-15T02:27:51.829Z,102258.97
2023-02-15T02:30:53.092Z,102250.34
2023-02-15T02:33:47.851Z,102254.41
2023-02-15T02:36:24.015Z,102238.59
2023-02-15T02:39:07.523Z,102250.81
2023-02-15T02:41:46.783Z,102247.44
2023-02-15T02:44:24.811Z,102239.72
2023-02-15T02:46:57.239Z,102243.81
2023-02-15T02:49:41.251Z,102240.63
2023-02-15T02:52:42.207Z,102234.53
2023-02-15T02:55:17.227Z,102234.31
2023-02-15T02:57:55.698Z,102239.06
2023-02-15T03:00:29.276Z,102233.59
2023-02-15T03:03:06.413Z,102233.88
2023-02-15T03:05:44.306Z,102231.81
2023-02-15T03:08:22.932Z,102229.56
2023-02-15T03:10:57.077Z,102222.53
2023-02-15T03:13:28.295Z,102224.56
2023-02-15T03:16:12.893Z,102214.19
2023-02-15T03:18:45.056Z,102219.59
2023-02-15T03:21:23.288Z,102213.72
2023-02-15T03:23:58.143Z,102202.41
2023-02-15T03:26:29.993Z,102204.22
2023-02-15T03:29:04.281Z,102204.66
2023-02-15T03:31:39.111Z,102204.88
2023-02-15T03:34:14.900Z,102197.00
2023-02-15T03:36:51.131Z,102195.16
2023-02-15T03:39:29.497Z,102199.47
2023-02-15T03:42:03.849Z,102198.34
2023-02-15T03:44:35.991Z,102196.06
2023-02-15T03:47:10.442Z,102196.53
2023-02-15T03:49:46.687Z,102199.66
2023-02-15T03:52:18.645Z,102203.06
2023-02-15T03:54:49.849Z,102203.06
2023-02-15T03:57:36.153Z,102198.31
2023-02-15T04:00:25.744Z,102204.22
2023-02-15T04:03:11.667Z,102199.69
2023-02-15T04:05:42.392Z,102215.09
2023-02-15T04:08:15.790Z,102204.44
2023-02-15T04:10:57.232Z,102189.72
2023-02-15T04:13:36.702Z,102190.44
2023-02-15T04:16:05.596Z,102186.34
2023-02-15T04:18:51.332Z,102191.53
2023-02-15T04:21:34.764Z,102187.47
2023-02-15T04:24:20.321Z,102168.72
2023-02-15T04:26:53.836Z,102186.56
2023-02-15T04:29:24.492Z,102189.06
2023-02-15T04:31:55.713Z,102175.28
2023-02-15T04:34:26.301Z,102143.41
2023-02-15T04:36:56.304Z,102177.53
2023-02-15T04:39:28.864Z,102171.22
2023-02-15T04:41:58.761Z,102180.72
2023-02-15T04:44:28.790Z,102172.13
2023-02-15T04:46:58.878Z,102174.84
2023-02-15T04:49:28.808Z,102150.66
2023-02-15T04:51:58.741Z,102164.91
2023-02-15T04:54:31.389Z,102170.53
2023-02-15T04:57:01.326Z,102161.94
2023-02-15T04:59:34.907Z,102157.88
2023-02-15T05:02:05.008Z,102158.56
2023-02-15T05:04:35.230Z,102166.69
2023-02-15T05:07:07.705Z,102156.75
2023-02-15T05:09:43.145Z,102160.59
2023-02-15T05:12:19.731Z,102167.41
2023-02-15T05:14:51.779Z,102168.97
2023-02-15T05:17:21.741Z,102175.31
2023-02-15T05:19:51.849Z,102164.88
2023-02-15T05:22:21.952Z,102157.69
2023-02-15T05:25:07.098Z,102164.00
2023-02-15T05:28:15.969Z,102144.56
2023-02-15T05:30:46.836Z,102144.34
2023-02-15T05:33:21.842Z,102140.25
2023-02-15T05:35:54.865Z,102162.66
2023-02-15T05:38:25.173Z,102151.81
2023-02-15T05:41:00.465Z,102150.22
2023-02-15T05:43:31.961Z,102137.53
2023-02-15T05:46:15.657Z,102128.28
2023-02-15T05:48:48.722Z,102137.31
2023-02-15T05:51:20.877Z,102121.50
2023-02-15T05:53:52.506Z,102142.06
2023-02-15T05:56:25.916Z,102120.84
2023-02-15T05:58:57.571Z,102132.81
2023-02-15T06:01:27.573Z,102123.53
2023-02-15T06:03:57.843Z,102136.41
2023-02-15T06:06:27.705Z,102140.28
2023-02-15T06:08:57.549Z,102133.94
2023-02-15T06:11:30.109Z,102140.50
2023-02-15T06:14:00.114Z,102147.28
2023-02-15T06:16:30.080Z,102142.09
2023-02-15T06:19:00.666Z,102137.34
2023-02-15T06:21:30.621Z,102145.47
2023-02-15T06:24:00.783Z,102140.03
2023-02-15T06:26:33.810Z,102143.66
2023-02-15T06:29:04.281Z,102141.88
2023-02-15T06:31:34.436Z,102138.25
2023-02-15T06:34:05.280Z,102140.03
2023-02-15T06:36:35.645Z,102131.00
2023-02-15T06:39:06.035Z,102126.94
2023-02-15T06:41:38.714Z,102131.00
2023-02-15T06:44:08.867Z,102123.09
2023-02-15T06:46:39.468Z,102128.53
2023-02-15T06:49:10.038Z,102127.63
2023-02-15T06:51:40.137Z,102135.06
2023-02-15T06:54:10.104Z,102131.44
2023-02-15T06:56:43.175Z,102115.63
2023-02-15T06:59:13.409Z,102129.88
2023-02-15T07:01:43.620Z,102113.84
2023-02-15T07:04:13.739Z,102134.84
2023-02-15T07:06:43.728Z,102124.00
2023-02-15T07:09:13.804Z,102133.94
2023-02-15T07:11:58.901Z,102136.44
2023-02-15T07:14:29.137Z,102134.84
2023-02-15T07:16:59.088Z,102121.50
2023-02-15T07:19:29.166Z,102135.28
2023-02-15T07:21:59.131Z,102126.47
2023-02-15T07:24:29.450Z,102127.84
2023-02-15T07:27:02.070Z,102137.78
2023-02-15T07:29:31.940Z,102130.09
2023-02-15T07:32:07.183Z,102132.81
2023-02-15T07:34:37.295Z,102142.28
2023-02-15T07:37:07.409Z,102128.72
2023-02-15T07:39:37.410Z,102134.59
2023-02-15T07:42:09.936Z,102141.84
2023-02-15T07:44:40.793Z,102138.19
2023-02-15T07:47:13.988Z,102140.00
2023-02-15T07:49:45.104Z,102138.66
2023-02-15T07:52:15.109Z,102128.72
2023-02-15T07:54:44.915Z,102132.75
2023-02-15T07:57:17.421Z,102125.97
2023-02-15T07:59:47.278Z,102090.69
2023-02-15T08:02:18.465Z,102127.31
2023-02-15T08:04:48.528Z,102111.22
2023-02-15T08:07:18.628Z,102113.25
2023-02-15T08:09:48.558Z,102110.06
2023-02-15T08:12:21.064Z,102108.91
2023-02-15T08:14:51.088Z,102092.88
2023-02-15T08:17:21.104Z,102109.09
2023-02-15T08:19:51.168Z,102097.31
2023-02-15T08:22:21.161Z,102095.69
2023-02-15T08:24:51.364Z,102077.81
2023-02-15T08:27:27.807Z,102094.97
2023-02-15T08:29:57.753Z,102084.25
2023-02-15T08:32:27.761Z,102074.59
2023-02-15T08:34:57.835Z,102080.84
2023-02-15T08:37:27.820Z,102076.09
2023-02-15T08:39:57.843Z,102079.88
2023-02-15T08:42:31.276Z,102075.72
2023-02-15T08:45:01.240Z,102081.53
2023-02-15T08:47:31.494Z,102084.69
2023-02-15T08:50:01.763Z,102076.25
2023-02-15T08:52:32.013Z,102085.72
2023-02-15T08:55:02.121Z,102082.91
2023-02-15T08:57:34.782Z,102058.28
2023-02-15T09:00:05.846Z,102071.06
2023-02-15T09:02:36.352Z,102069.28
2023-02-15T09:05:06.790Z,102067.19
2023-02-15T09:07:36.840Z,102071.91
2023-02-15T09:10:07.326Z,102079.59
2023-02-15T09:12:39.927Z,102076.75
2023-02-15T09:15:11.970Z,102073.31
2023-02-15T09:17:41.977Z,102082.22
2023-02-15T09:20:13.153Z,102080.00
2023-02-15T09:22:43.233Z,102077.13
2023-02-15T09:25:14.657Z,102077.81
2023-02-15T09:27:47.580Z,102077.41
2023-02-15T09:30:18.171Z,102079.91
2023-02-15T09:32:48.357Z,102081.03
2023-02-15T09:35:18.487Z,102081.28
2023-02-15T09:37:48.501Z,102077.13
2023-02-15T09:40:21.457Z,102079.78
2023-02-15T09:43:16.644Z,102077.84
2023-02-15T09:46:01.261Z,102069.78
2023-02-15T09:48:54.329Z,102068.16
2023-02-15T09:52:00.079Z,102075.03
2023-02-15T09:54:48.683Z,102063.19
2023-02-15T09:57:28.566Z,102065.03
2023-02-15T10:00:10.453Z,102039.34
2023-02-15T10:03:00.370Z,102066.03
2023-02-15T10:05:42.675Z,102043.97
2023-02-15T10:08:44.676Z,102057.50
2023-02-15T10:11:38.503Z,102067.78
2023-02-15T10:14:22.646Z,102049.97
2023-02-15T10:17:05.968Z,102057.69
2023-02-15T10:19:44.904Z,102054.00
2023-02-15T10:22:31.919Z,102056.50
2023-02-15T10:25:18.867Z,102056.00
2023-02-15T10:27:51.232Z,102053.84
2023-02-15T10:30:27.884Z,102045.97
2023-02-15T10:33:04.249Z,102045.66
2023-02-15T10:35:48.201Z,102052.38
2023-02-15T10:38:28.874Z,102042.38
2023-02-15T10:41:12.912Z,102051.91
2023-02-15T10:44:00.670Z,102057.41
2023-02-15T10:46:54.077Z,102048.94
2023-02-15T10:49:43.426Z,102032.22
2023-02-15T10:52:30.406Z,102049.63
2023-02-15T10:55:11.434Z,102040.19
2023-02-15T10:57:50.647Z,102044.28
2023-02-15T11:00:30.051Z,102027.88
2023-02-15T11:03:16.605Z,102043.13
2023-02-15T11:06:00.720Z,102038.38
2023-02-15T11:08:35.611Z,102039.28
2023-02-15T11:11:09.337Z,102026.78
2023-02-15T11:13:46.936Z,102024.66
2023-02-15T11:16:20.421Z,102021.19
2023-02-15T11:18:57.362Z,102019.50
2023-02-15T11:21:33.567Z,102017.19
2023-02-15T11:24:04.076Z,102022.56
2023-02-15T11:26:38.382Z,102017.34
2023-02-15T11:29:12.380Z,102015.34
2023-02-15T11:31:48.694Z,102014.94
2023-02-15T11:34:26.125Z,101989.41
2023-02-15T11:37:02.424Z,102005.53
2023-02-15T11:39:34.817Z,102011.72
2023-02-15T11:42:10.577Z,101981.00
2023-02-15T11:44:45.388Z,102010.19
2023-02-15T11:47:15.815Z,102004.69
2023-02-15T11:49:45.775Z,102000.91
2023-02-15T11:52:21.724Z,102003.06
2023-02-15T11:54:54.935Z,101994.00
2023-02-15T11:57:30.661Z,101998.03
2023-02-15T12:00:06.046Z,101990.69
2023-02-15T12:02:41.204Z,101987.03
2023-02-15T12:05:20.149Z,101997.16
2023-02-15T12:07:59.039Z,101978.19
2023-02-15T12:10:32.229Z,101986.94
2023-02-15T12:13:14.859Z,101982.81
2023-02-15T12:15:49.933Z,101981.41
2023-02-15T12:18:28.512Z,101975.47
2023-02-15T12:21:04.530Z,101978.63
2023-02-15T12:23:39.465Z,101981.59
2023-02-15T12:26:09.606Z,101977.34
2023-02-15T12:28:43.282Z,101979.72
2023-02-15T12:31:24.884Z,101971.56
2023-02-15T12:33:58.417Z,101962.81
2023-02-15T12:36:32.874Z,101951.88
2023-02-15T12:39:22.332Z,101957.41
2023-02-15T12:42:09.095Z,101947.50
2023-02-15T12:44:41.304Z,101957.53
2023-02-15T12:47:28.977Z,101944.88
2023-02-15T12:50:17.941Z,101953.28
2023-02-15T12:52:51.343Z,101952.06
2023-02-15T12:55:30.917Z,101949.03
2023-02-15T12:58:12.374Z,101944.53
2023-02-15T13:00:42.874Z,101955.22
2023-02-15T13:03:21.396Z,101943.25
2023-02-15T13:05:55.667Z,101910.84
2023-02-15T13:08:29.604Z,101948.97
2023-02-15T13:11:05.819Z,101949.88
2023-02-15T13:13:39.598Z,101931.97
2023-02-15T13:16:15.364Z,101909.91
2023-02-15T13:18:48.554Z,101921.47
2023-02-15T13:21:22.289Z,101909.66
2023-02-15T13:23:57.962Z,101912.69
2023-02-15T13:26:36.425Z,101909.50
2023-02-15T13:29:12.462Z,101909.34
2023-02-15T13:31:43.734Z,101907.22
2023-02-15T13:34:20.196Z,101904.91
2023-02-15T13:36:58.114Z,101894.50
2023-02-15T13:39:34.208Z,101902.00
2023-02-15T13:42:24.365Z,101899.91
2023-02-15T13:45:13.099Z,101882.88
2023-02-15T13:47:54.102Z,101884.13
2023-02-15T13:50:46.279Z,101883.63
2023-02-15T13:53:31.398Z,101880.41
2023-02-15T13:56:09.379Z,101866.53
2023-02-15T13:59:07.004Z,101883.63
2023-02-15T14:01:44.575Z,101884.13
2023-02-15T14:04:38.433Z,101881.84
2023-02-15T14:07:22.599Z,101873.00
2023-02-15T14:10:06.644Z,101869.97
2023-02-15T14:12:47.792Z,101864.44
2023-02-15T14:15:46.653Z,101871.41
2023-02-15T14:18:43.864Z,101877.16
2023-02-15T14:21:19.983Z,101870.88
2023-02-15T14:24:04.731Z,101872.66
2023-02-15T14:26:44.060Z,101869.78
2023-02-15T14:29:24.668Z,101826.66
2023-02-15T14:32:01.538Z,101861.75
2023-02-15T14:34:40.801Z,101867.88
2023-02-15T14:37:14.586Z,101865.75
2023-02-15T14:40:04.038Z,101863.63
2023-02-15T14:42:42.902Z,101859.53
2023-02-15T14:45:23.179Z,101837.63
2023-02-15T14:48:01.741Z,101848.38
2023-02-15T14:50:45.884Z,101851.59
2023-02-15T14:53:39.555Z,101841.22
2023-02-15T14:56:25.513Z,101843.16
2023-02-15T14:59:23.505Z,101855.38
2023-02-15T15:01:59.429Z,101850.88
2023-02-15T15:04:36.444Z,101851.22
2023-02-15T15:07:16.456Z,101854.41
2023-02-15T15:09:49.853Z,101854.59
2023-02-15T15:12:44.224Z,101852.06
2023-02-15T15:15:36.210Z,101838.41
2023-02-15T15:18:07.533Z,101831.56
2023-02-15T15:20:51.826Z,101851.16
2023-02-15T15:23:42.154Z,101847.38
2023-02-15T15:26:30.329Z,101854.50
2023-02-15T15:29:02.710Z,101853.66
2023-02-15T15:31:45.400Z,101845.19
2023-02-15T15:34:31.904Z,101845.88
2023-02-15T15:37:34.491Z,101843.94
2023-02-15T15:40:44.716Z,101848.56
2023-02-15T15:43:41.748Z,101839.75
2023-02-15T15:46:26.048Z,101837.00
2023-02-15T15:48:56.555Z,101835.38
2023-02-15T15:51:34.210Z,101823.81
2023-02-15T15:54:05.694Z,101793.94
2023-02-15T15:56:40.697Z,101819.63
2023-02-15T15:59:18.591Z,101828.06
2023-02-15T16:01:50.933Z,101827.31
2023-02-15T16:04:30.943Z,101836.59
2023-02-15T16:07:01.376Z,101829.19
2023-02-15T16:09:31.906Z,101813.22
2023-02-15T16:12:06.474Z,101824.31
2023-02-15T16:14:40.487Z,101830.88
2023-02-15T16:17:20.336Z,101829.75
2023-02-15T16:19:53.327Z,101812.59
2023-02-15T16:22:26.387Z,101812.03
2023-02-15T16:25:19.108Z,101822.22
2023-02-15T16:27:52.743Z,101833.63
2023-02-15T16:30:27.547Z,101816.66
2023-02-15T16:33:06.618Z,101831.88
2023-02-15T16:35:37.675Z,101828.09
2023-02-15T16:38:08.445Z,101833.22
2023-02-15T16:40:53.531Z,101831.41
2023-02-15T16:43:30.459Z,101836.94
2023-02-15T16:46:08.252Z,101837.44
2023-02-15T16:48:45.460Z,101832.38
2023-02-15T16:51:26.454Z,101829.09
2023-02-15T16:53:59.411Z,101824.59
2023-02-15T16:56:31.893Z,101834.59
2023-02-15T16:59:05.594Z,101824.91
2023-02-15T17:01:36.774Z,101827.03
2023-02-15T17:04:25.717Z,101823.44
2023-02-15T17:07:02.898Z,101791.47
2023-02-15T17:09:33.209Z,101823.38
2023-02-15T17:12:04.040Z,101826.25
2023-02-15T17:14:42.889Z,101813.03
2023-02-15T17:17:18.136Z,101822.16
2023-02-15T17:19:53.476Z,101821.25
2023-02-15T17:22:27.948Z,101818.56
2023-02-15T17:25:04.038Z,101820.88
2023-02-15T17:27:36.318Z,101824.97
2023-02-15T17:30:20.367Z,101820.47
2023-02-15T17:32:57.690Z,101804.78
2023-02-15T17:35:28.751Z,101811.41
2023-02-15T17:38:07.869Z,101823.78
2023-02-15T17:40:39.430Z,101802.69
2023-02-15T17:43:09.337Z,101818.69
2023-02-15T17:45:48.253Z,101818.69
2023-02-15T17:48:24.144Z,101809.00
2023-02-15T17:50:54.316Z,101813.50
2023-02-15T17:53:24.463Z,101814.91
2023-02-15T17:55:51.896Z,101810.09
2023-02-15T17:58:23.673Z,101814.72
2023-02-15T18:01:12.417Z,101796.16
2023-02-15T18:03:57.891Z,101816.03
2023-02-15T18:06:40.944Z,101826.91
2023-02-15T18:09:26.677Z,101818.34
2023-02-15T18:11:57.269Z,101819.22
2023-02-15T18:14:27.517Z,101819.22
2023-02-15T18:17:02.790Z,101812.03
2023-02-15T18:19:33.108Z,101804.44
2023-02-15T18:22:03.067Z,101811.25
2023-02-15T18:24:33.291Z,101798.34
2023-02-15T18:27:03.305Z,101803.06
2023-02-15T18:29:33.767Z,101806.94
2023-02-15T18:32:10.239Z,101798.53
2023-02-15T18:34:42.282Z,101796.94
2023-02-15T18:37:16.781Z,101799.06
2023-02-15T18:39:49.369Z,101794.56
2023-02-15T18:42:24.505Z,101793.09
2023-02-15T18:44:57.987Z,101795.88
2023-02-15T18:47:30.966Z,101803.38
2023-02-15T18:50:00.913Z,101796.88
2023-02-15T18:52:36.514Z,101790.88
2023-02-15T18:55:16.482Z,101789.59
2023-02-15T18:57:46.735Z,101805.38
2023-02-15T19:00:21.964Z,101791.41
2023-02-15T19:02:54.976Z,101793.00
2023-02-15T19:05:27.662Z,101783.78
2023-02-15T19:07:58.161Z,101786.69
2023-02-15T19:10:30.637Z,101781.50
2023-02-15T19:13:00.876Z,101772.00
2023-02-15T19:15:34.681Z,101772.50
2023-02-15T19:18:07.836Z,101766.41
2023-02-15T19:20:41.374Z,101740.31
2023-02-15T19:23:23.288Z,101771.22
2023-02-15T19:25:54.624Z,101766.22
2023-02-15T19:28:32.507Z,101763.53
2023-02-15T19:31:03.178Z,101768.91
2023-02-15T19:33:35.902Z,101731.94
2023-02-15T19:36:08.385Z,101770.09
2023-02-15T19:38:38.836Z,101769.00
2023-02-15T19:41:11.290Z,101763.59
2023-02-15T19:43:41.416Z,101761.59
2023-02-15T19:46:20.017Z,101757.00
2023-02-15T19:48:53.464Z,101755.00
2023-02-15T19:51:26.532Z,101744.59
2023-02-15T19:53:57.785Z,101757.06
2023-02-15T19:56:27.835Z,101760.28
2023-02-15T19:58:59.355Z,101761.00
2023-02-15T20:01:29.455Z,101755.28
2023-02-15T20:04:02.100Z,101757.41
2023-02-15T20:06:32.387Z,101753.50
2023-02-15T20:09:02.328Z,101755.22
2023-02-15T20:11:32.515Z,101761.31
2023-02-15T20:14:02.712Z,101759.28
2023-02-15T20:16:32.597Z,101749.31
2023-02-15T20:19:05.384Z,101745.41
2023-02-15T20:21:36.237Z,101752.72
2023-02-15T20:24:07.623Z,101749.13
2023-02-15T20:26:38.782Z,101751.59
2023-02-15T20:29:10.320Z,101754.50
2023-02-15T20:31:40.881Z,101750.69
2023-02-15T20:34:14.616Z,101758.69
2023-02-15T20:36:44.940Z,101748.59
2023-02-15T20:39:20.534Z,101759.69
2023-02-15T20:41:50.722Z,101770.78
2023-02-15T20:44:24.004Z,101759.69
2023-02-15T20:46:56.786Z,101762.19
2023-02-15T20:49:30.620Z,101767.19
2023-02-15T20:52:01.104Z,101755.19
2023-02-15T20:54:36.124Z,101760.41
2023-02-15T20:57:07.329Z,101753.69
2023-02-15T20:59:37.691Z,101763.19
2023-02-15T21:02:19.060Z,101756.66
2023-02-15T21:04:52.039Z,101766.88
2023-02-15T21:07:23.872Z,101765.56
2023-02-15T21:09:54.401Z,101765.34
2023-02-15T21:12:24.765Z,101765.84
2023-02-15T21:14:54.886Z,101783.75
2023-02-15T21:17:24.762Z,101770.34
2023-02-15T21:19:57.692Z,101773.03
2023-02-15T21:22:27.527Z,101766.94
2023-02-15T21:24:57.577Z,101775.34
2023-02-15T21:27:27.626Z,101773.75
2023-02-15T21:29:57.894Z,101763.56
2023-02-15T21:32:28.032Z,101770.84
2023-02-15T21:35:00.598Z,101768.34
2023-02-15T21:37:35.072Z,101775.16
2023-02-15T21:40:07.209Z,101769.25
2023-02-15T21:42:49.681Z,101772.16
2023-02-15T21:45:33.482Z,101770.84
2023-02-15T21:48:03.735Z,101782.44
2023-02-15T21:50:50.978Z,101775.25
2023-02-15T21:53:25.131Z,101778.31
2023-02-15T21:55:57.872Z,101780.63
2023-02-15T21:58:31.509Z,101783.84
2023-02-15T22:01:04.308Z,101779.13
2023-02-15T22:03:36.560Z,101781.44
2023-02-15T22:06:09.342Z,101780.13
2023-02-15T22:08:39.492Z,101778.50
2023-02-15T22:11:14.876Z,101789.00
2023-02-15T22:13:47.873Z,101778.13
2023-02-15T22:16:20.672Z,101783.59
2023-02-15T22:18:51.821Z,101779.13
2023-02-15T22:21:26.632Z,101778.22
2023-02-15T22:23:56.599Z,101781.00
2023-02-15T22:26:27.929Z,101778.50
2023-02-15T22:28:59.897Z,101777.00
2023-02-15T22:31:31.115Z,101779.25
2023-02-15T22:34:01.259Z,101769.38
2023-02-15T22:36:34.298Z,101774.28
2023-02-15T22:39:04.375Z,101787.47
2023-02-15T22:41:36.930Z,101787.47
2023-02-15T22:44:06.948Z,101772.66
2023-02-15T22:46:38.590Z,101775.97
2023-02-15T22:49:08.800Z,101784.53
2023-02-15T22:51:42.096Z,101780.72
2023-02-15T22:54:12.372Z,101768.34
2023-02-15T22:56:46.080Z,101774.44
2023-02-15T22:59:24.064Z,101765.84
2023-02-15T23:01:54.135Z,101769.94
2023-02-15T23:04:27.640Z,101769.94
2023-02-15T23:07:01.238Z,101781.72
2023-02-15T23:09:31.181Z,101767.25
2023-02-15T23:12:02.594Z,101767.97
2023-02-15T23:14:37.532Z,101770.25
2023-02-15T23:17:07.641Z,101773.03
2023-02-15T23:19:37.612Z,101762.44
2023-02-15T23:22:15.790Z,101763.81
2023-02-15T23:24:51.903Z,101760.22
2023-02-15T23:27:34.519Z,101768.41
2023-02-15T23:30:06.548Z,101759.63
2023-02-15T23:32:36.767Z,101759.00
2023-02-15T23:35:16.495Z,101757.19
2023-02-15T23:37:49.403Z,101770.81
2023-02-15T23:40:33.560Z,101762.22
2023-02-15T23:43:04.120Z,101763.63
2023-02-15T23:45:40.048Z,101764.81
2023-02-15T23:48:35.331Z,101763.50
2023-02-15T23:51:05.710Z,101763.28
2023-02-15T23:53:38.776Z,101757.00
2023-02-15T23:56:09.364Z,101756.56
2023-02-15T23:58:41.498Z,101762.91
